Time;durP1;ratioP1;P1;durP2;ratioP2;P2;SDS_P1;SDS_P2;PMS_P1;PMS_P2;Temp;Humidity;BMP_temperature;BMP_pressure;BME280_temperature;BME280_humidity;BME280_pressure;Samples;Min_cycle;Max_cycle;Signal;HPM_P1;HPM_P2
2023/06/08 00:00:58;;;;;;;9.48;7.53;;;17.40;99.90;;;;;;5079107;28;20039;-50
2023/06/08 00:03:23;;;;;;;9.68;7.05;;;17.40;99.90;;;;;;5058554;28;20021;-51
2023/06/08 00:05:50;;;;;;;8.63;6.88;;;17.40;99.90;;;;;;5060226;28;20131;-49
2023/06/08 00:08:16;;;;;;;9.30;6.95;;;17.40;99.90;;;;;;5051453;28;20076;-48
2023/06/08 00:10:42;;;;;;;8.35;5.95;;;17.40;99.90;;;;;;5051112;28;20454;-49
2023/06/08 00:13:08;;;;;;;8.48;6.68;;;17.40;99.90;;;;;;5051395;28;20044;-51
2023/06/08 00:15:34;;;;;;;8.10;6.85;;;17.40;99.90;;;;;;5051389;28;20475;-51
2023/06/08 00:18:01;;;;;;;9.25;6.72;;;17.40;99.90;;;;;;5071110;28;20086;-51
2023/06/08 00:20:26;;;;;;;8.82;6.85;;;17.40;99.90;;;;;;5063248;28;20035;-49
2023/06/08 00:22:52;;;;;;;9.18;7.30;;;17.50;99.90;;;;;;5063249;28;20099;-51
2023/06/08 00:25:18;;;;;;;10.35;6.78;;;17.50;99.90;;;;;;5070159;28;20482;-50
2023/06/08 00:27:43;;;;;;;9.02;6.95;;;17.50;99.90;;;;;;5061903;28;20205;-49
2023/06/08 00:30:09;;;;;;;8.38;6.07;;;17.50;99.90;;;;;;5073705;28;20017;-49
2023/06/08 00:32:35;;;;;;;9.32;7.28;;;17.40;99.90;;;;;;5071173;28;20536;-50
2023/06/08 00:35:01;;;;;;;8.60;7.03;;;17.50;99.90;;;;;;5059021;28;20032;-48
2023/06/08 00:37:26;;;;;;;11.75;6.80;;;17.40;99.90;;;;;;5057639;28;20050;-51
2023/06/08 00:39:52;;;;;;;9.10;6.95;;;17.40;99.90;;;;;;5070343;28;20021;-50
2023/06/08 00:42:17;;;;;;;7.95;6.90;;;17.30;99.90;;;;;;5057018;28;20394;-48
2023/06/08 00:44:43;;;;;;;10.35;7.03;;;17.40;99.90;;;;;;5058753;28;20364;-51
2023/06/08 00:47:09;;;;;;;11.50;7.65;;;17.30;99.90;;;;;;5057725;28;20009;-49
2023/06/08 00:49:35;;;;;;;9.52;6.95;;;17.30;99.90;;;;;;5058249;28;20466;-49
2023/06/08 00:52:01;;;;;;;9.27;6.88;;;17.30;99.90;;;;;;5053978;28;20095;-49
2023/06/08 00:54:30;;;;;;;8.10;6.32;;;17.30;99.90;;;;;;5055442;28;20071;-48
2023/06/08 00:57:00;;;;;;;10.80;6.88;;;17.30;99.90;;;;;;5065559;28;20021;-49
2023/06/08 00:59:29;;;;;;;9.85;7.13;;;17.30;99.90;;;;;;5063158;28;20112;-49
2023/06/08 01:01:57;;;;;;;8.10;6.22;;;17.40;99.90;;;;;;5089186;28;20024;-48
2023/06/08 01:04:23;;;;;;;7.93;6.50;;;17.30;99.90;;;;;;5070097;28;20128;-50
2023/06/08 01:06:53;;;;;;;8.75;7.18;;;17.30;99.90;;;;;;5068355;28;20086;-50
2023/06/08 01:09:39;;;;;;;9.07;6.68;;;17.40;99.90;;;;;;5055222;28;20391;-51
2023/06/08 01:12:05;;;;;;;9.68;6.85;;;17.40;99.90;;;;;;5049815;28;20033;-49
2023/06/08 01:14:41;;;;;;;9.25;6.85;;;17.40;99.90;;;;;;5056845;28;20028;-48
2023/06/08 01:17:14;;;;;;;9.70;7.18;;;17.40;99.90;;;;;;5061865;28;20020;-48
2023/06/08 01:20:18;;;;;;;9.48;7.53;;;17.40;99.90;;;;;;5061084;28;20028;-51
2023/06/08 01:22:47;;;;;;;9.38;7.30;;;17.40;99.90;;;;;;5049707;28;20039;-51
2023/06/08 01:25:14;;;;;;;15.30;8.15;;;17.40;99.90;;;;;;5049889;28;20017;-49
2023/06/08 01:27:40;;;;;;;16.95;8.20;;;17.40;99.90;;;;;;5057881;28;20063;-48
2023/06/08 01:30:06;;;;;;;10.73;7.63;;;17.40;99.90;;;;;;5081137;28;20461;-47
2023/06/08 01:32:32;;;;;;;9.63;7.22;;;17.40;99.90;;;;;;5075707;28;20063;-48
2023/06/08 01:34:58;;;;;;;11.93;7.95;;;17.40;99.90;;;;;;5060827;28;20239;-47
2023/06/08 01:37:47;;;;;;;10.20;7.65;;;17.40;99.90;;;;;;5063854;28;20052;-49
2023/06/08 01:40:28;;;;;;;11.48;7.45;;;17.40;99.90;;;;;;5034991;28;20021;-42
2023/06/08 01:42:53;;;;;;;9.95;7.18;;;17.40;99.90;;;;;;5049408;28;20516;-41
2023/06/08 01:45:23;;;;;;;9.15;7.70;;;17.40;99.90;;;;;;5054905;28;20029;-41
2023/06/08 01:47:54;;;;;;;11.70;7.53;;;17.40;99.90;;;;;;5050727;28;20021;-42
2023/06/08 01:50:21;;;;;;;9.30;7.13;;;17.40;99.90;;;;;;5049434;28;20522;-43
2023/06/08 01:52:50;;;;;;;9.55;7.13;;;17.40;99.90;;;;;;5048112;28;20118;-42
2023/06/08 01:55:20;;;;;;;9.98;7.75;;;17.40;99.90;;;;;;5057763;28;20086;-41
2023/06/08 01:57:46;;;;;;;8.40;7.50;;;17.30;99.90;;;;;;5058015;28;20025;-44
2023/06/08 02:00:14;;;;;;;11.65;7.28;;;17.40;99.90;;;;;;5064264;28;20051;-41
2023/06/08 02:02:39;;;;;;;10.15;7.25;;;17.30;99.90;;;;;;5073284;28;20035;-42
2023/06/08 02:05:09;;;;;;;9.55;7.53;;;17.30;99.90;;;;;;5049271;28;20096;-44
2023/06/08 02:07:35;;;;;;;10.07;7.45;;;17.30;99.90;;;;;;5048096;28;20552;-42
2023/06/08 02:10:01;;;;;;;11.00;7.45;;;17.30;99.90;;;;;;5048619;28;20025;-42
2023/06/08 02:12:27;;;;;;;8.77;7.15;;;17.30;99.90;;;;;;5069312;28;20031;-41
2023/06/08 02:14:52;;;;;;;11.88;7.35;;;17.30;99.90;;;;;;5087441;28;20072;-44
2023/06/08 02:17:18;;;;;;;8.57;6.88;;;17.20;99.90;;;;;;5055502;28;20486;-41
2023/06/08 02:19:44;;;;;;;13.02;6.93;;;17.20;99.90;;;;;;5066894;28;20138;-42
2023/06/08 02:22:10;;;;;;;12.85;7.22;;;17.20;99.90;;;;;;5082558;28;20074;-43
2023/06/08 02:24:35;;;;;;;9.18;7.55;;;17.20;99.90;;;;;;5060161;28;20108;-41
2023/06/08 02:27:02;;;;;;;8.82;7.55;;;17.20;99.90;;;;;;5057085;28;20081;-42
2023/06/08 02:29:28;;;;;;;10.25;6.60;;;17.20;99.90;;;;;;5088817;28;20047;-42
2023/06/08 02:31:53;;;;;;;11.07;8.20;;;17.20;99.90;;;;;;5054379;28;20013;-42
2023/06/08 02:34:19;;;;;;;8.23;6.80;;;17.30;99.90;;;;;;5055269;28;20021;-42
2023/06/08 02:36:47;;;;;;;8.82;7.65;;;17.20;99.90;;;;;;5056363;28;20025;-42
2023/06/08 02:39:14;;;;;;;12.27;7.43;;;17.20;99.90;;;;;;5056267;28;20021;-43
2023/06/08 02:41:40;;;;;;;12.43;7.55;;;17.20;99.90;;;;;;5048030;28;20039;-42
2023/06/08 02:44:06;;;;;;;13.38;9.20;;;17.20;99.90;;;;;;5051571;28;20021;-44
2023/06/08 02:46:32;;;;;;;10.25;7.57;;;17.20;99.90;;;;;;5060046;28;20048;-42
2023/06/08 02:49:00;;;;;;;11.07;8.02;;;17.20;99.90;;;;;;5049699;28;20071;-41
2023/06/08 02:51:25;;;;;;;13.18;8.27;;;17.20;99.90;;;;;;5056367;28;20054;-42
2023/06/08 02:53:51;;;;;;;9.70;7.40;;;17.30;99.90;;;;;;5048299;28;20045;-42
2023/06/08 02:56:17;;;;;;;12.10;7.18;;;17.20;99.90;;;;;;5052779;28;20053;-42
2023/06/08 02:58:46;;;;;;;13.73;7.68;;;17.30;99.90;;;;;;5084985;28;20553;-42
2023/06/08 03:01:14;;;;;;;11.05;8.13;;;17.30;99.90;;;;;;5055155;28;20031;-42
2023/06/08 03:03:45;;;;;;;13.50;8.95;;;17.30;99.90;;;;;;5047160;28;20044;-43
2023/06/08 03:06:17;;;;;;;11.45;7.80;;;17.30;99.90;;;;;;5048256;28;20009;-42
2023/06/08 03:08:53;;;;;;;12.18;8.18;;;17.30;99.90;;;;;;5081556;28;20043;-44
2023/06/08 03:11:22;;;;;;;11.80;8.25;;;17.30;99.90;;;;;;5052431;28;20009;-43
2023/06/08 03:13:48;;;;;;;13.35;8.13;;;17.30;99.90;;;;;;5056199;28;20507;-42
2023/06/08 03:16:14;;;;;;;9.77;7.78;;;17.30;99.90;;;;;;5059636;28;20359;-42
2023/06/08 03:18:40;;;;;;;9.88;7.70;;;17.30;99.90;;;;;;5056942;28;20107;-42
2023/06/08 03:21:08;;;;;;;7.65;6.85;;;17.30;99.90;;;;;;5058229;28;20116;-42
2023/06/08 03:23:35;;;;;;;8.90;7.28;;;17.30;99.90;;;;;;5055910;28;20027;-43
2023/06/08 03:26:02;;;;;;;9.60;7.50;;;17.20;99.90;;;;;;5056531;28;20016;-41
2023/06/08 03:28:28;;;;;;;9.63;7.82;;;17.20;99.90;;;;;;5056635;28;20529;-41
2023/06/08 03:30:53;;;;;;;9.55;7.50;;;17.20;99.90;;;;;;5055269;28;20096;-42
2023/06/08 03:33:19;;;;;;;13.38;8.13;;;17.20;99.90;;;;;;5058441;28;20105;-42
2023/06/08 03:35:46;;;;;;;10.73;7.70;;;17.20;99.90;;;;;;5056405;28;20254;-42
2023/06/08 03:38:12;;;;;;;11.80;8.00;;;17.20;99.90;;;;;;5061960;28;20505;-42
2023/06/08 03:40:37;;;;;;;12.75;8.00;;;17.20;99.90;;;;;;5065075;28;20060;-45
2023/06/08 03:43:03;;;;;;;8.43;7.50;;;17.20;99.90;;;;;;5060016;28;20054;-42
2023/06/08 03:45:29;;;;;;;10.13;7.75;;;17.30;99.90;;;;;;5057335;28;20398;-41
2023/06/08 03:47:55;;;;;;;11.93;7.57;;;17.20;99.90;;;;;;5052619;28;20271;-42
2023/06/08 03:50:21;;;;;;;9.40;7.25;;;17.20;99.90;;;;;;5058745;28;20025;-42
2023/06/08 03:52:46;;;;;;;11.77;7.95;;;17.20;99.90;;;;;;5059286;28;20512;-44
2023/06/08 03:55:12;;;;;;;12.60;8.07;;;17.20;99.90;;;;;;5082567;28;20027;-42
2023/06/08 03:57:38;;;;;;;11.70;8.80;;;17.20;99.90;;;;;;5058102;28;20029;-41
2023/06/08 04:00:09;;;;;;;11.63;7.80;;;17.10;99.90;;;;;;5049695;28;20036;-40
2023/06/08 04:02:35;;;;;;;9.68;8.25;;;17.10;99.90;;;;;;5054328;28;20021;-39
2023/06/08 04:05:01;;;;;;;11.43;8.48;;;17.00;99.90;;;;;;5054089;28;20036;-39
2023/06/08 04:07:27;;;;;;;12.35;8.57;;;17.00;99.90;;;;;;5050900;28;20031;-39
2023/06/08 04:09:53;;;;;;;10.52;8.10;;;17.00;99.90;;;;;;5060383;28;20017;-39
2023/06/08 04:12:18;;;;;;;9.80;8.60;;;17.00;99.90;;;;;;5054078;28;20423;-39
2023/06/08 04:14:45;;;;;;;13.15;8.88;;;17.00;99.90;;;;;;5051324;28;20500;-39
2023/06/08 04:17:12;;;;;;;12.10;7.90;;;17.00;99.90;;;;;;5051206;28;20552;-39
2023/06/08 04:19:38;;;;;;;13.90;8.75;;;17.00;99.90;;;;;;5050307;28;20448;-39
2023/06/08 04:22:04;;;;;;;12.43;8.98;;;17.00;99.90;;;;;;5050918;28;20041;-39
2023/06/08 04:24:30;;;;;;;12.57;9.90;;;17.00;99.90;;;;;;5051220;28;20022;-39
2023/06/08 04:26:56;;;;;;;11.98;9.15;;;17.00;99.90;;;;;;5058977;28;20032;-39
2023/06/08 04:29:22;;;;;;;17.20;9.43;;;17.00;99.90;;;;;;5055294;28;20095;-38
2023/06/08 04:31:48;;;;;;;9.45;8.23;;;17.00;99.90;;;;;;5062274;28;20550;-39
2023/06/08 04:34:14;;;;;;;13.30;8.15;;;16.90;99.90;;;;;;5059223;28;20028;-39
2023/06/08 04:36:42;;;;;;;13.40;8.30;;;17.00;99.90;;;;;;5062624;28;20383;-39
2023/06/08 04:39:08;;;;;;;12.15;8.25;;;17.00;99.90;;;;;;5059579;28;20363;-39
2023/06/08 04:41:34;;;;;;;11.68;7.97;;;17.00;99.90;;;;;;5056747;28;20536;-39
2023/06/08 04:44:01;;;;;;;10.75;8.70;;;17.00;99.90;;;;;;5069101;28;20024;-39
2023/06/08 04:46:30;;;;;;;13.63;9.43;;;17.00;99.90;;;;;;5062708;28;20016;-39
2023/06/08 04:48:56;;;;;;;11.40;8.48;;;17.00;99.90;;;;;;5054089;28;20021;-39
2023/06/08 04:51:29;;;;;;;11.10;7.70;;;17.10;99.90;;;;;;5066297;28;20017;-39
2023/06/08 04:54:01;;;;;;;13.57;8.60;;;17.10;99.90;;;;;;5050519;28;20471;-39
2023/06/08 04:56:29;;;;;;;10.23;8.73;;;17.10;99.90;;;;;;5054394;28;20029;-39
2023/06/08 04:58:56;;;;;;;11.82;9.00;;;17.10;99.90;;;;;;5058306;28;20543;-39
2023/06/08 05:01:22;;;;;;;13.23;9.05;;;17.10;99.90;;;;;;5050752;28;20082;-39
2023/06/08 05:03:47;;;;;;;11.00;8.73;;;17.20;99.90;;;;;;5051369;28;20113;-39
2023/06/08 05:06:13;;;;;;;12.27;8.52;;;17.20;99.90;;;;;;5051070;28;20031;-39
2023/06/08 05:08:39;;;;;;;15.63;8.90;;;17.20;99.90;;;;;;5057491;28;20111;-39
2023/06/08 05:11:05;;;;;;;12.77;8.35;;;17.20;99.90;;;;;;5052297;28;20043;-39
2023/06/08 05:13:30;;;;;;;11.60;8.38;;;17.30;99.90;;;;;;5051115;28;20056;-39
2023/06/08 05:15:58;;;;;;;14.40;9.32;;;17.30;99.90;;;;;;5050627;28;20035;-39
2023/06/08 05:18:25;;;;;;;12.23;9.00;;;17.30;99.90;;;;;;5050928;28;20591;-39
2023/06/08 05:20:50;;;;;;;11.05;8.27;;;17.30;99.90;;;;;;5050314;28;20017;-39
2023/06/08 05:23:16;;;;;;;13.60;8.52;;;17.30;99.90;;;;;;5054050;28;20543;-39
2023/06/08 05:25:41;;;;;;;11.98;8.80;;;17.40;99.90;;;;;;5054132;28;20101;-39
2023/06/08 05:28:06;;;;;;;10.70;7.68;;;17.30;99.90;;;;;;5050411;28;20388;-39
2023/06/08 05:30:32;;;;;;;11.50;9.32;;;17.40;99.90;;;;;;5058304;28;20390;-39
2023/06/08 05:33:00;;;;;;;12.55;9.25;;;17.40;99.90;;;;;;5058712;28;20029;-39
2023/06/08 05:35:25;;;;;;;8.63;7.47;;;17.40;99.90;;;;;;5049073;28;20025;-39
2023/06/08 05:37:51;;;;;;;9.15;8.02;;;17.40;99.90;;;;;;5050324;28;20025;-39
2023/06/08 05:40:17;;;;;;;12.50;9.68;;;17.50;99.90;;;;;;5048291;28;20040;-39
2023/06/08 05:42:43;;;;;;;11.75;8.85;;;17.60;99.90;;;;;;5058459;28;20031;-39
2023/06/08 05:45:09;;;;;;;12.30;8.65;;;17.60;99.90;;;;;;5058358;28;20565;-39
2023/06/08 05:47:34;;;;;;;12.95;9.20;;;17.70;99.90;;;;;;5064332;28;20035;-39
2023/06/08 05:50:00;;;;;;;11.75;8.55;;;17.80;99.90;;;;;;5061383;28;20017;-39
2023/06/08 05:52:25;;;;;;;15.07;8.07;;;17.80;99.90;;;;;;5057423;28;20032;-39
2023/06/08 05:54:51;;;;;;;13.98;9.68;;;18.00;99.90;;;;;;5049931;28;20399;-39
2023/06/08 05:57:19;;;;;;;12.95;8.50;;;18.10;99.90;;;;;;5058509;28;20025;-40
2023/06/08 05:59:48;;;;;;;11.02;9.63;;;18.20;99.90;;;;;;5052929;28;20043;-39
2023/06/08 06:02:14;;;;;;;14.07;8.57;;;18.20;99.90;;;;;;5049402;28;20027;-39
2023/06/08 06:04:41;;;;;;;11.27;8.88;;;18.30;99.90;;;;;;5053720;28;20021;-39
2023/06/08 06:07:07;;;;;;;11.98;8.40;;;18.40;99.90;;;;;;5056790;28;20028;-39
2023/06/08 06:09:33;;;;;;;11.02;8.90;;;18.60;99.90;;;;;;5053051;28;20032;-39
